Time;durP1;ratioP1;P1;durP2;ratioP2;P2;SDS_P1;SDS_P2;PMS_P1;PMS_P2;Temp;Humidity;BMP_temperature;BMP_pressure;BME280_temperature;BME280_humidity;BME280_pressure;Samples;Min_cycle;Max_cycle;Signal;HPM_P1;HPM_P2
2023/01/31 00:00:54;;;;;;;14.95;3.60;;;4.80;99.90;;;;;;5052709;28;20220;-44
2023/01/31 00:03:20;;;;;;;14.38;3.90;;;4.90;99.90;;;;;;5053002;28;20209;-44
2023/01/31 00:05:45;;;;;;;14.32;4.32;;;4.80;99.90;;;;;;5052609;28;20238;-44
2023/01/31 00:08:13;;;;;;;28.08;6.15;;;4.90;99.90;;;;;;5052547;28;20251;-44
2023/01/31 00:10:38;;;;;;;8.38;3.92;;;4.90;99.90;;;;;;5052762;28;20205;-44
2023/01/31 00:13:04;;;;;;;16.25;3.53;;;4.90;99.90;;;;;;5052380;28;20597;-44
2023/01/31 00:15:29;;;;;;;17.17;4.38;;;4.90;99.90;;;;;;5052525;28;20253;-44
2023/01/31 00:17:55;;;;;;;20.02;5.28;;;4.90;99.90;;;;;;5052589;28;20205;-44
2023/01/31 00:20:20;;;;;;;19.27;3.42;;;4.90;99.90;;;;;;5069065;28;20622;-44
2023/01/31 00:22:46;;;;;;;10.77;3.15;;;4.90;99.90;;;;;;5052367;28;20166;-45
2023/01/31 00:25:12;;;;;;;14.48;4.55;;;4.80;99.90;;;;;;5052543;28;20949;-44
2023/01/31 00:27:37;;;;;;;16.83;3.70;;;4.90;99.90;;;;;;5052278;28;20730;-44
2023/01/31 00:30:03;;;;;;;13.77;3.92;;;4.90;99.90;;;;;;5052340;28;20171;-44
2023/01/31 00:32:29;;;;;;;13.48;2.60;;;4.90;99.90;;;;;;5050353;28;20209;-46
2023/01/31 00:34:55;;;;;;;13.80;4.35;;;4.90;99.90;;;;;;5052283;28;20244;-46
2023/01/31 00:37:21;;;;;;;14.65;3.63;;;4.80;99.90;;;;;;5052794;28;20673;-46
2023/01/31 00:39:47;;;;;;;19.80;3.75;;;4.80;99.90;;;;;;5052222;28;20182;-46
2023/01/31 00:42:12;;;;;;;18.05;3.05;;;4.70;99.90;;;;;;5052135;28;20162;-46
2023/01/31 00:44:38;;;;;;;17.75;3.90;;;4.60;99.90;;;;;;5052010;28;20175;-46
2023/01/31 00:47:04;;;;;;;12.90;3.47;;;4.70;99.90;;;;;;5052017;28;20630;-46
2023/01/31 00:49:29;;;;;;;21.10;3.33;;;4.60;99.90;;;;;;5059776;28;20539;-46
2023/01/31 00:51:55;;;;;;;14.80;4.22;;;4.60;99.90;;;;;;5071485;28;20170;-46
2023/01/31 00:54:21;;;;;;;12.60;3.25;;;4.50;99.90;;;;;;5071377;28;20593;-45
2023/01/31 00:56:46;;;;;;;14.80;3.42;;;4.40;99.90;;;;;;5071782;28;20170;-44
2023/01/31 00:59:12;;;;;;;15.35;2.78;;;4.50;99.90;;;;;;5072081;28;20170;-44
2023/01/31 01:01:38;;;;;;;13.73;3.75;;;4.40;99.90;;;;;;5071731;28;20170;-44
2023/01/31 01:04:03;;;;;;;13.27;3.83;;;4.30;99.90;;;;;;5071473;28;20225;-44
2023/01/31 01:06:29;;;;;;;15.93;3.80;;;4.30;99.90;;;;;;5071547;28;20685;-44
2023/01/31 01:08:58;;;;;;;15.70;3.40;;;7.50;99.90;;;;;;5071176;28;20246;-44
2023/01/31 01:11:29;;;;;;;13.73;4.22;;;4.30;99.90;;;;;;5071811;28;20165;-44
2023/01/31 01:13:56;;;;;;;10.70;3.28;;;4.40;99.90;;;;;;5071491;28;20203;-44
2023/01/31 01:16:32;;;;;;;18.05;3.22;;;4.30;99.90;;;;;;5071983;28;20162;-44
2023/01/31 01:19:00;;;;;;;17.88;3.05;;;4.20;99.90;;;;;;5062650;28;20185;-44
2023/01/31 01:21:27;;;;;;;10.98;2.72;;;4.20;99.90;;;;;;5051379;28;20169;-44
2023/01/31 01:23:56;;;;;;;14.05;3.10;;;4.30;99.90;;;;;;5051476;28;20181;-44
2023/01/31 01:26:25;;;;;;;19.05;3.47;;;4.30;99.90;;;;;;5051568;28;20657;-44
2023/01/31 01:28:51;;;;;;;13.00;3.15;;;4.20;99.90;;;;;;5051537;28;20566;-44
2023/01/31 01:31:18;;;;;;;14.25;3.10;;;4.30;99.90;;;;;;5051271;28;20166;-44
2023/01/31 01:33:45;;;;;;;19.33;3.72;;;4.30;99.90;;;;;;5051455;28;20524;-44
2023/01/31 01:36:16;;;;;;;18.27;4.72;;;4.30;99.90;;;;;;5051110;28;20177;-46
2023/01/31 01:38:42;;;;;;;17.52;3.55;;;4.20;99.90;;;;;;5051502;28;20170;-45
2023/01/31 01:41:08;;;;;;;16.15;3.63;;;4.30;99.90;;;;;;5051152;28;20532;-45
2023/01/31 01:43:43;;;;;;;15.80;3.75;;;4.30;99.90;;;;;;5050746;28;20170;-46
2023/01/31 01:46:12;;;;;;;11.43;3.63;;;4.40;99.90;;;;;;5051365;28;20174;-45
2023/01/31 01:48:38;;;;;;;18.60;3.53;;;4.40;99.90;;;;;;5055595;28;20209;-45
2023/01/31 01:51:05;;;;;;;16.92;3.10;;;4.40;99.90;;;;;;5070771;28;20166;-45
2023/01/31 01:53:33;;;;;;;13.82;3.55;;;4.30;99.90;;;;;;5071279;28;20224;-45
2023/01/31 01:56:08;;;;;;;12.48;3.17;;;4.30;99.90;;;;;;5071045;28;20166;-45
2023/01/31 01:58:48;;;;;;;16.38;3.50;;;4.40;99.90;;;;;;5071152;28;20255;-45
2023/01/31 02:01:15;;;;;;;16.25;3.85;;;4.40;99.90;;;;;;5071338;28;20177;-45
2023/01/31 02:03:43;;;;;;;17.75;3.90;;;4.50;99.90;;;;;;5070758;28;20744;-45
2023/01/31 02:06:09;;;;;;;20.15;3.67;;;4.40;99.90;;;;;;5071007;28;20707;-45
2023/01/31 02:08:38;;;;;;;12.88;2.92;;;4.40;99.90;;;;;;5070923;28;20246;-46
2023/01/31 02:11:03;;;;;;;9.65;2.33;;;4.40;99.90;;;;;;5071017;28;20793;-45
2023/01/31 02:13:30;;;;;;;12.63;3.00;;;4.30;99.90;;;;;;5070867;28;20202;-46
2023/01/31 02:15:57;;;;;;;14.57;2.95;;;4.40;99.90;;;;;;5070941;28;20170;-45
2023/01/31 02:18:24;;;;;;;14.48;3.53;;;4.40;99.90;;;;;;5070151;28;20174;-46
2023/01/31 02:21:27;;;;;;;19.75;4.03;;;4.40;99.90;;;;;;5070943;28;20208;-45
2023/01/31 02:24:18;;;;;;;10.95;3.38;;;4.40;99.90;;;;;;5071372;28;20169;-45
2023/01/31 02:27:07;;;;;;;10.90;3.05;;;4.40;99.90;;;;;;5070935;28;20198;-45
2023/01/31 02:29:51;;;;;;;13.38;2.50;;;4.50;99.90;;;;;;5070628;28;20265;-45
2023/01/31 02:32:38;;;;;;;11.52;3.28;;;4.40;99.90;;;;;;5070817;28;20166;-45
2023/01/31 02:35:28;;;;;;;17.45;3.03;;;4.40;99.90;;;;;;5070182;28;20630;-45
2023/01/31 02:38:27;;;;;;;17.75;3.75;;;4.40;99.90;;;;;;5070698;28;20214;-45
2023/01/31 02:41:15;;;;;;;13.63;2.97;;;4.50;99.90;;;;;;5070539;28;20661;-45
2023/01/31 02:46:59;;;;;;;17.23;3.90;;;4.50;99.90;;;;;;5070901;28;20220;-46
2023/01/31 02:49:42;;;;;;;14.45;4.35;;;4.40;99.90;;;;;;5056290;28;20552;-45
2023/01/31 02:52:17;;;;;;;13.23;3.67;;;4.40;99.90;;;;;;5050361;28;20631;-45
2023/01/31 02:57:42;;;;;;;14.02;2.85;;;4.30;99.90;;;;;;5055449;28;20237;-45
2023/01/31 03:00:09;;;;;;;15.90;3.10;;;4.30;99.90;;;;;;5054076;28;20622;-47
2023/01/31 03:02:35;;;;;;;12.32;3.10;;;4.30;99.90;;;;;;5053834;28;20574;-45
2023/01/31 03:05:01;;;;;;;15.57;3.67;;;4.30;99.90;;;;;;5053702;28;20222;-45
2023/01/31 03:07:32;;;;;;;15.63;3.25;;;4.20;99.90;;;;;;5053988;28;20212;-45
2023/01/31 03:10:18;;;;;;;13.45;3.78;;;4.20;99.90;;;;;;5053717;28;20524;-45
2023/01/31 03:13:17;;;;;;;13.73;3.72;;;4.20;99.90;;;;;;5053832;28;20188;-45
2023/01/31 03:19:23;;;;;;;15.02;3.40;;;4.10;99.90;;;;;;5073431;28;20189;-45
2023/01/31 03:22:02;;;;;;;11.80;3.22;;;4.20;99.90;;;;;;5050894;28;20174;-45
2023/01/31 03:24:29;;;;;;;16.15;3.83;;;4.10;99.90;;;;;;5073630;28;20170;-45
2023/01/31 03:26:57;;;;;;;15.00;3.33;;;4.10;99.90;;;;;;5073648;28;20210;-45
2023/01/31 03:29:27;;;;;;;25.95;4.38;;;4.20;99.90;;;;;;5073370;28;20245;-45
2023/01/31 03:31:59;;;;;;;12.27;3.55;;;4.10;99.90;;;;;;5073506;28;20162;-46
2023/01/31 03:34:26;;;;;;;16.70;4.28;;;4.10;99.90;;;;;;5073586;28;20213;-46
2023/01/31 03:37:00;;;;;;;18.73;3.90;;;4.00;99.90;;;;;;5061440;28;20305;-45
2023/01/31 03:40:10;;;;;;;14.27;4.22;;;4.00;99.90;;;;;;5053272;28;20174;-45
2023/01/31 03:42:53;;;;;;;18.05;3.90;;;4.10;99.90;;;;;;5029790;28;20179;-45
2023/01/31 03:45:40;;;;;;;14.77;3.97;;;4.10;99.90;;;;;;5053583;28;20250;-45
2023/01/31 03:48:13;;;;;;;19.02;3.78;;;4.10;99.90;;;;;;5053145;28;20194;-45
2023/01/31 03:50:48;;;;;;;14.15;3.90;;;4.00;99.90;;;;;;5053180;28;20182;-45
2023/01/31 03:53:42;;;;;;;15.95;4.57;;;4.00;99.90;;;;;;5053033;28;20158;-45
2023/01/31 03:56:22;;;;;;;9.32;3.80;;;4.00;99.90;;;;;;5053100;28;20203;-45
2023/01/31 03:58:52;;;;;;;9.73;4.25;;;3.90;99.90;;;;;;5073333;28;20158;-45
2023/01/31 04:01:21;;;;;;;18.25;4.82;;;4.00;99.90;;;;;;5073506;28;20208;-45
2023/01/31 04:03:54;;;;;;;18.77;5.38;;;3.80;99.90;;;;;;5072529;28;20209;-46
2023/01/31 04:06:20;;;;;;;18.05;5.57;;;3.90;99.90;;;;;;5072198;28;20243;-45
2023/01/31 04:08:46;;;;;;;18.45;5.25;;;3.80;99.90;;;;;;5072816;28;20289;-45
2023/01/31 04:11:13;;;;;;;17.50;4.90;;;3.80;99.90;;;;;;5072803;28;20158;-45
2023/01/31 04:13:40;;;;;;;21.50;4.82;;;3.80;99.90;;;;;;5072348;28;20174;-45
2023/01/31 04:16:06;;;;;;;18.02;4.82;;;3.70;99.90;;;;;;5062326;28;20175;-45
2023/01/31 04:18:32;;;;;;;16.58;4.30;;;3.70;99.90;;;;;;5052594;28;20253;-45
2023/01/31 04:20:57;;;;;;;11.95;5.13;;;3.70;99.90;;;;;;5051177;28;20190;-45
2023/01/31 04:23:25;;;;;;;17.50;4.40;;;6.00;99.90;;;;;;5052319;28;20166;-45
2023/01/31 04:25:53;;;;;;;25.80;5.32;;;3.70;99.90;;;;;;5052824;28;20189;-45
2023/01/31 04:28:19;;;;;;;15.73;4.60;;;3.70;99.90;;;;;;5052887;28;20217;-45
2023/01/31 04:30:45;;;;;;;19.83;5.50;;;3.70;99.90;;;;;;5052460;28;20647;-45
2023/01/31 04:33:10;;;;;;;15.98;5.18;;;3.70;99.90;;;;;;5052421;28;20206;-45
2023/01/31 04:35:39;;;;;;;17.25;5.82;;;3.80;99.90;;;;;;5060180;28;20170;-45
2023/01/31 04:38:04;;;;;;;16.20;5.40;;;3.70;99.90;;;;;;5072050;28;20633;-45
2023/01/31 04:40:30;;;;;;;16.63;5.90;;;3.80;99.90;;;;;;5072440;28;20177;-45
2023/01/31 04:42:55;;;;;;;17.85;3.90;;;3.80;99.90;;;;;;5072108;28;20245;-45
2023/01/31 04:45:21;;;;;;;14.07;5.05;;;3.70;99.90;;;;;;5071165;28;20509;-45
2023/01/31 04:47:46;;;;;;;18.48;4.72;;;3.80;99.90;;;;;;5072039;28;20198;-45
2023/01/31 04:50:12;;;;;;;17.85;5.30;;;3.70;99.90;;;;;;5072146;28;20648;-45
2023/01/31 04:52:37;;;;;;;14.18;5.43;;;3.80;99.90;;;;;;5071991;28;20163;-45
2023/01/31 04:55:03;;;;;;;16.67;5.25;;;3.70;99.90;;;;;;5065639;28;20257;-45
2023/01/31 04:57:29;;;;;;;22.25;6.03;;;3.80;99.90;;;;;;5051694;28;20178;-45
2023/01/31 04:59:54;;;;;;;18.98;7.38;;;3.80;99.90;;;;;;5051961;28;20179;-45
2023/01/31 05:02:22;;;;;;;18.95;6.10;;;3.70;99.90;;;;;;5052025;28;20178;-45
2023/01/31 05:04:47;;;;;;;22.65;5.28;;;3.70;99.90;;;;;;5051754;28;20229;-46
2023/01/31 05:07:13;;;;;;;23.98;6.80;;;3.90;99.90;;;;;;5051631;28;20163;-45
2023/01/31 05:09:41;;;;;;;19.27;5.38;;;3.90;99.90;;;;;;5051809;28;20179;-46
2023/01/31 05:12:07;;;;;;;26.85;6.15;;;3.80;99.90;;;;;;5051773;28;20171;-46
2023/01/31 05:14:32;;;;;;;17.85;5.97;;;3.80;99.90;;;;;;5055302;28;20177;-46
2023/01/31 05:16:58;;;;;;;18.75;7.43;;;3.90;99.90;;;;;;5070944;28;20178;-46
2023/01/31 05:19:23;;;;;;;17.48;5.35;;;3.90;99.90;;;;;;5071441;28;20732;-45
2023/01/31 05:21:57;;;;;;;19.63;6.60;;;3.90;99.90;;;;;;5071988;28;20211;-45
2023/01/31 05:24:27;;;;;;;16.90;5.22;;;4.00;99.90;;;;;;5071392;28;20180;-45
2023/01/31 05:26:57;;;;;;;16.27;6.28;;;3.90;99.90;;;;;;5071495;28;20223;-45
2023/01/31 05:29:29;;;;;;;20.15;6.55;;;3.90;99.90;;;;;;5071237;28;20242;-45
2023/01/31 05:31:57;;;;;;;19.20;5.93;;;4.00;99.90;;;;;;5071416;28;20525;-47
2023/01/31 05:34:24;;;;;;;17.50;6.05;;;4.00;99.90;;;;;;5070643;28;20634;-45
2023/01/31 05:36:50;;;;;;;21.15;6.95;;;4.00;99.90;;;;;;5051295;28;20546;-45
2023/01/31 05:39:16;;;;;;;26.10;5.72;;;4.10;99.90;;;;;;5050116;28;20170;-45
2023/01/31 05:41:42;;;;;;;16.58;5.93;;;4.10;99.90;;;;;;5051422;28;20174;-45
2023/01/31 05:44:07;;;;;;;25.88;6.85;;;4.20;99.90;;;;;;5051913;28;20174;-45
2023/01/31 05:46:33;;;;;;;22.42;5.65;;;4.20;99.90;;;;;;5051497;28;20639;-45
2023/01/31 05:48:58;;;;;;;22.98;6.88;;;4.20;99.90;;;;;;5051590;28;20253;-45
2023/01/31 05:51:24;;;;;;;19.50;5.28;;;4.20;99.90;;;;;;5051535;28;20200;-45
2023/01/31 05:53:50;;;;;;;17.67;5.00;;;4.20;99.90;;;;;;5052152;28;20186;-45
2023/01/31 05:56:16;;;;;;;16.42;4.65;;;4.30;99.90;;;;;;5051698;28;20170;-46
2023/01/31 05:58:42;;;;;;;11.82;3.85;;;4.20;99.90;;;;;;5051631;28;20253;-45
2023/01/31 06:01:08;;;;;;;15.13;4.97;;;4.20;99.90;;;;;;5062725;28;20525;-46
2023/01/31 06:03:33;;;;;;;14.75;4.97;;;4.20;99.90;;;;;;5069189;28;20224;-46
2023/01/31 06:05:59;;;;;;;23.05;5.53;;;4.40;99.90;;;;;;5057360;28;20178;-45
2023/01/31 06:08:25;;;;;;;25.67;6.78;;;4.30;99.90;;;;;;5049792;28;20202;-46
2023/01/31 06:10:50;;;;;;;16.60;4.20;;;4.30;99.90;;;;;;5049874;28;20527;-45
2023/01/31 06:13:16;;;;;;;13.43;5.43;;;4.30;99.90;;;;;;5049823;28;20175;-46
2023/01/31 06:15:43;;;;;;;9.75;4.20;;;4.30;99.90;;;;;;5049831;28;20649;-45
2023/01/31 06:18:08;;;;;;;21.70;5.43;;;4.40;99.90;;;;;;5049558;28;20173;-45
2023/01/31 06:20:34;;;;;;;18.75;4.93;;;4.40;99.90;;;;;;5049552;28;20166;-45
2023/01/31 06:23:00;;;;;;;15.35;4.20;;;4.40;99.90;;;;;;5049869;28;20166;-45
2023/01/31 06:25:26;;;;;;;17.02;4.35;;;4.30;99.90;;;;;;5050579;28;20201;-45
2023/01/31 06:27:52;;;;;;;12.48;4.22;;;4.30;99.90;;;;;;5048978;28;20260;-45
2023/01/31 06:30:17;;;;;;;14.70;4.38;;;4.30;99.90;;;;;;5063339;28;20548;-45
2023/01/31 06:32:43;;;;;;;10.52;3.35;;;4.30;99.90;;;;;;5069162;28;20692;-45
2023/01/31 06:35:08;;;;;;;25.10;4.82;;;4.30;99.90;;;;;;5053037;28;20177;-45
2023/01/31 06:37:34;;;;;;;14.70;3.63;;;4.30;99.90;;;;;;5066296;28;20209;-45
2023/01/31 06:39:59;;;;;;;14.15;4.35;;;4.30;99.90;;;;;;5061312;28;20181;-45
2023/01/31 06:42:25;;;;;;;14.93;4.25;;;4.30;99.90;;;;;;5058121;28;20173;-45
2023/01/31 06:44:51;;;;;;;17.85;5.13;;;4.40;99.90;;;;;;5073221;28;20273;-46
2023/01/31 06:47:16;;;;;;;13.25;3.80;;;4.40;99.90;;;;;;5073074;28;20194;-45
2023/01/31 06:49:42;;;;;;;11.70;3.50;;;4.40;99.90;;;;;;5072534;28;20264;-45
2023/01/31 06:52:07;;;;;;;15.93;4.53;;;4.40;99.90;;;;;;5073068;28;20241;-46
2023/01/31 06:54:33;;;;;;;8.18;3.83;;;4.40;99.90;;;;;;5070043;28;20178;-46
2023/01/31 06:56:58;;;;;;;18.30;4.38;;;4.30;99.90;;;;;;5052842;28;20174;-45
2023/01/31 06:59:24;;;;;;;12.07;3.42;;;4.50;99.90;;;;;;5052643;28;20167;-45
2023/01/31 07:01:49;;;;;;;8.23;3.20;;;4.40;99.90;;;;;;5051578;28;20221;-45
2023/01/31 07:04:15;;;;;;;16.52;3.63;;;4.30;99.90;;;;;;5052418;28;20218;-45
2023/01/31 07:06:40;;;;;;;17.42;3.78;;;4.30;99.90;;;;;;5052324;28;20526;-45
2023/01/31 07:09:06;;;;;;;9.45;3.17;;;4.30;99.90;;;;;;5052393;28;20681;-45
2023/01/31 07:11:32;;;;;;;12.27;3.42;;;4.40;99.90;;;;;;5052479;28;20711;-45
2023/01/31 07:13:57;;;;;;;16.85;3.38;;;4.40;99.90;;;;;;5052363;28;20618;-45
2023/01/31 07:16:24;;;;;;;14.80;4.03;;;4.50;99.90;;;;;;5052523;28;20173;-46
2023/01/31 07:18:53;;;;;;;24.00;3.60;;;4.40;99.90;;;;;;5052846;28;20181;-45
2023/01/31 07:21:20;;;;;;;11.63;3.47;;;4.50;99.90;;;;;;5053043;28;20174;-45
2023/01/31 07:23:46;;;;;;;9.52;2.90;;;4.40;99.90;;;;;;5052798;28;20166;-46
2023/01/31 07:26:11;;;;;;;8.02;3.05;;;4.50;99.90;;;;;;5067816;28;20261;-46
2023/01/31 07:28:37;;;;;;;14.25;3.63;;;4.40;99.90;;;;;;5072304;28;20281;-45
2023/01/31 07:31:09;;;;;;;9.02;3.10;;;4.50;99.90;;;;;;5072296;28;20180;-45
2023/01/31 07:33:35;;;;;;;11.70;3.03;;;4.50;99.90;;;;;;5072379;28;20178;-45
2023/01/31 07:36:03;;;;;;;12.88;3.50;;;4.40;99.90;;;;;;5072220;28;20169;-45
2023/01/31 07:38:29;;;;;;;11.38;2.88;;;4.60;99.90;;;;;;5072399;28;20542;-45
2023/01/31 07:40:58;;;;;;;7.80;3.10;;;4.60;99.90;;;;;;5071956;28;20163;-45
2023/01/31 07:43:24;;;;;;;13.02;3.65;;;4.60;99.90;;;;;;5072211;28;20291;-45
2023/01/31 07:45:49;;;;;;;9.68;3.88;;;4.60;99.90;;;;;;5057235;28;20560;-45
2023/01/31 07:48:15;;;;;;;15.88;2.70;;;4.60;99.90;;;;;;5052026;28;20210;-46
2023/01/31 07:50:41;;;;;;;8.85;2.42;;;4.60;99.90;;;;;;5051920;28;20169;-45
2023/01/31 07:53:06;;;;;;;10.18;3.30;;;4.60;99.90;;;;;;5056947;28;20292;-45
2023/01/31 07:55:32;;;;;;;12.00;2.70;;;4.60;99.90;;;;;;5071281;28;20184;-45
2023/01/31 07:57:57;;;;;;;12.98;2.72;;;4.60;99.90;;;;;;5071455;28;20166;-45
2023/01/31 08:03:31;;;;;;;10.38;2.67;;;4.60;99.90;;;;;;5059453;28;20175;-45
2023/01/31 08:03:34;;;;;;;9.50;2.88;;;4.70;99.90;;;;;;5068383;28;20208;-45
2023/01/31 08:06:11;;;;;;;12.30;2.58;;;4.80;99.90;;;;;;5071559;28;20197;-45
2023/01/31 08:08:38;;;;;;;10.70;2.38;;;4.90;99.90;;;;;;5071196;28;20205;-45
2023/01/31 08:11:04;;;;;;;11.07;2.67;;;4.90;99.90;;;;;;5071205;28;20166;-46
2023/01/31 08:13:37;;;;;;;5.18;2.30;;;4.90;99.90;;;;;;5069713;28;20166;-45
2023/01/31 08:16:04;;;;;;;3.78;2.40;;;5.00;99.90;;;;;;5071158;28;20212;-45
2023/01/31 08:18:30;;;;;;;10.70;2.83;;;5.00;99.90;;;;;;5071286;28;20170;-45
2023/01/31 08:20:56;;;;;;;4.40;2.03;;;5.00;99.90;;;;;;5070976;28;20640;-47
2023/01/31 08:23:22;;;;;;;13.65;3.30;;;5.10;99.90;;;;;;5070996;28;20200;-45
2023/01/31 08:25:47;;;;;;;9.32;2.90;;;5.10;99.90;;;;;;5057322;28;20202;-44
2023/01/31 08:28:14;;;;;;;15.80;3.90;;;5.10;99.90;;;;;;5050830;28;20673;-48
2023/01/31 08:30:43;;;;;;;11.57;3.10;;;5.20;99.90;;;;;;5050733;28;20162;-48
2023/01/31 08:33:10;;;;;;;8.18;3.53;;;5.30;99.90;;;;;;5050761;28;20175;-47
2023/01/31 08:35:36;;;;;;;14.70;3.58;;;5.30;99.90;;;;;;5050478;28;20175;-47
2023/01/31 08:38:02;;;;;;;14.50;2.97;;;5.30;99.90;;;;;;5050596;28;20186;-48
2023/01/31 08:40:28;;;;;;;15.52;3.60;;;5.40;99.90;;;;;;5050820;28;20170;-48
2023/01/31 08:42:56;;;;;;;6.88;2.05;;;5.40;99.90;;;;;;5050707;28;20174;-47
2023/01/31 08:45:22;;;;;;;16.15;4.20;;;5.40;99.90;;;;;;5050534;28;20182;-47
2023/01/31 08:47:52;;;;;;;8.93;2.97;;;5.40;99.90;;;;;;5050584;28;20206;-47
2023/01/31 08:50:18;;;;;;;8.05;2.55;;;5.50;99.90;;;;;;5050923;28;20186;-47
2023/01/31 08:52:43;;;;;;;9.77;3.25;;;5.50;99.90;;;;;;5049845;28;20167;-47
2023/01/31 08:55:12;;;;;;;10.52;3.20;;;5.60;99.90;;;;;;5050944;28;20210;-48
2023/01/31 08:57:39;;;;;;;4.97;2.40;;;5.70;99.90;;;;;;5050433;28;20231;-48
2023/01/31 09:00:06;;;;;;;12.50;3.40;;;5.60;99.90;;;;;;5050622;28;20171;-48
2023/01/31 09:02:32;;;;;;;9.55;2.30;;;5.70;99.90;;;;;;5050202;28;20639;-48
2023/01/31 09:04:57;;;;;;;6.28;2.17;;;5.60;99.90;;;;;;5069622;28;20221;-48
2023/01/31 09:07:23;;;;;;;10.30;2.85;;;5.60;99.90;;;;;;5070009;28;20232;-48
2023/01/31 09:09:48;;;;;;;14.23;3.50;;;5.70;99.90;;;;;;5070390;28;20166;-47
2023/01/31 09:12:14;;;;;;;11.95;3.45;;;5.60;99.90;;;;;;5070410;28;20173;-47
2023/01/31 09:14:39;;;;;;;7.75;2.17;;;5.70;99.90;;;;;;5070072;28;20635;-48
2023/01/31 09:17:06;;;;;;;15.30;3.10;;;5.60;99.90;;;;;;5070029;28;20170;-48
2023/01/31 09:19:32;;;;;;;10.95;2.78;;;5.60;99.90;;;;;;5070279;28;20170;-48
2023/01/31 09:21:57;;;;;;;11.02;3.78;;;5.70;99.90;;;;;;5070355;28;20578;-48
2023/01/31 09:24:23;;;;;;;5.78;2.63;;;5.70;99.90;;;;;;5068052;28;20168;-47
2023/01/31 09:26:49;;;;;;;8.13;2.05;;;5.80;99.90;;;;;;5050203;28;20569;-47
2023/01/31 09:29:14;;;;;;;12.38;3.78;;;5.70;99.90;;;;;;5050024;28;20257;-48
2023/01/31 09:31:40;;;;;;;4.50;2.10;;;5.70;99.90;;;;;;5049600;28;20617;-47
2023/01/31 09:34:05;;;;;;;6.35;3.28;;;5.70;99.90;;;;;;5049636;28;20210;-47
2023/01/31 09:36:31;;;;;;;10.90;3.63;;;5.80;99.90;;;;;;5049651;28;20187;-47
2023/01/31 09:38:56;;;;;;;10.95;2.90;;;5.80;99.90;;;;;;5049998;28;20228;-47
2023/01/31 09:41:37;;;;;;;7.65;2.47;;;5.70;99.90;;;;;;5049486;28;20707;-47
2023/01/31 09:44:12;;;;;;;13.88;3.72;;;5.80;99.90;;;;;;5048410;28;20254;-47
2023/01/31 09:46:48;;;;;;;13.00;3.25;;;5.90;99.90;;;;;;5049586;28;20507;-47
2023/01/31 09:49:21;;;;;;;9.50;3.17;;;5.80;99.90;;;;;;5048333;28;20558;-47
2023/01/31 09:51:53;;;;;;;9.77;2.45;;;5.90;99.90;;;;;;5055876;28;20166;-47
2023/01/31 09:54:24;;;;;;;7.22;2.45;;;5.90;99.90;;;;;;5069134;28;20166;-47
2023/01/31 09:57:22;;;;;;;13.30;3.78;;;5.80;99.90;;;;;;5070062;28;20244;-47
2023/01/31 09:59:53;;;;;;;12.18;3.08;;;5.90;99.90;;;;;;5069195;28;20185;-52
2023/01/31 10:02:27;;;;;;;9.05;3.00;;;5.90;99.90;;;;;;5068036;28;20189;-47
2023/01/31 10:04:53;;;;;;;14.63;3.42;;;6.00;99.90;;;;;;5071720;28;20583;-47
2023/01/31 10:07:31;;;;;;;13.63;3.40;;;6.10;99.90;;;;;;5073699;28;20166;-45
2023/01/31 10:10:14;;;;;;;13.35;4.10;;;6.10;99.90;;;;;;5073623;28;20180;-47
2023/01/31 10:12:46;;;;;;;18.10;6.38;;;6.20;99.90;;;;;;5073391;28;20253;-44
2023/01/31 10:15:23;;;;;;;12.95;3.63;;;6.20;99.90;;;;;;5073425;28;20687;-48
2023/01/31 10:17:55;;;;;;;10.75;4.22;;;6.20;99.90;;;;;;5073697;28;20173;-48
2023/01/31 10:20:32;;;;;;;13.85;3.15;;;6.20;99.90;;;;;;5073493;28;20259;-51
2023/01/31 10:23:02;;;;;;;9.82;3.75;;;6.30;99.90;;;;;;5073261;28;20625;-47
2023/01/31 10:25:37;;;;;;;10.02;3.70;;;6.30;99.90;;;;;;5072659;28;20173;-45
2023/01/31 10:28:26;;;;;;;9.95;3.25;;;6.50;99.90;;;;;;5073129;28;20280;-47
2023/01/31 10:31:20;;;;;;;9.82;4.38;;;6.50;99.90;;;;;;5073054;28;20174;-47
2023/01/31 10:34:09;;;;;;;8.90;3.28;;;6.50;99.90;;;;;;5073087;28;20173;-47
2023/01/31 10:37:03;;;;;;;10.05;3.17;;;6.50;99.90;;;;;;5073261;28;20239;-47
2023/01/31 10:39:44;;;;;;;8.65;2.90;;;6.60;99.90;;;;;;5072877;28;20180;-47
2023/01/31 10:42:16;;;;;;;16.33;3.92;;;6.70;99.90;;;;;;5073049;28;20628;-48
2023/01/31 10:45:00;;;;;;;11.30;3.17;;;6.60;99.90;;;;;;5073166;28;20747;-46
2023/01/31 10:47:32;;;;;;;7.63;2.92;;;6.60;99.90;;;;;;5072603;28;20162;-46
2023/01/31 10:49:57;;;;;;;7.55;2.42;;;6.70;99.90;;;;;;5073169;28;20170;-48
2023/01/31 10:52:45;;;;;;;10.82;3.28;;;6.70;99.90;;;;;;5071593;28;20170;-47
2023/01/31 10:55:44;;;;;;;12.30;3.25;;;6.70;99.90;;;;;;5071964;28;20227;-48
2023/01/31 10:58:16;;;;;;;17.25;3.47;;;6.70;99.90;;;;;;5054195;28;20263;-47
2023/01/31 11:00:42;;;;;;;10.65;2.20;;;6.70;99.90;;;;;;5051202;28;20170;-47
2023/01/31 11:03:11;;;;;;;10.07;2.83;;;6.80;99.90;;;;;;5052544;28;20177;-47
2023/01/31 11:05:48;;;;;;;7.38;2.35;;;6.80;99.90;;;;;;5052205;28;20225;-47
2023/01/31 11:08:29;;;;;;;7.25;3.65;;;6.90;99.90;;;;;;5052614;28;20210;-47
2023/01/31 11:10:56;;;;;;;11.55;3.45;;;7.00;99.90;;;;;;5052328;28;20532;-47
2023/01/31 11:13:22;;;;;;;6.50;2.65;;;7.00;99.90;;;;;;5052374;28;20159;-47
2023/01/31 11:15:51;;;;;;;13.40;2.80;;;7.00;99.90;;;;;;5052277;28;20171;-47
2023/01/31 11:18:26;;;;;;;7.72;2.50;;;7.00;99.90;;;;;;5052675;28;20643;-47
2023/01/31 11:20:52;;;;;;;13.15;3.83;;;6.90;99.90;;;;;;5051946;28;20533;-47
2023/01/31 11:23:24;;;;;;;5.78;2.60;;;7.00;99.90;;;;;;5070173;28;20177;-47
2023/01/31 11:25:51;;;;;;;13.10;3.63;;;6.90;99.90;;;;;;5071759;28;20194;-47
2023/01/31 11:28:39;;;;;;;14.23;2.58;;;7.00;99.90;;;;;;5072291;28;20225;-47
2023/01/31 11:31:16;;;;;;;10.40;3.65;;;6.90;99.90;;;;;;5071917;28;20178;-47
2023/01/31 11:33:44;;;;;;;7.38;3.22;;;6.90;99.90;;;;;;5072175;28;20196;-47
2023/01/31 11:36:13;;;;;;;9.98;3.85;;;6.80;99.90;;;;;;5071928;28;20173;-47
2023/01/31 11:38:39;;;;;;;9.73;3.80;;;6.90;99.90;;;;;;5071837;28;20226;-47
2023/01/31 11:41:34;;;;;;;9.18;3.45;;;7.00;99.90;;;;;;5071867;28;20249;-47
2023/01/31 11:44:15;;;;;;;8.05;3.50;;;6.90;99.90;;;;;;5071972;28;20178;-47
2023/01/31 11:46:55;;;;;;;5.55;2.25;;;6.80;99.90;;;;;;5071807;28;20173;-47
2023/01/31 11:49:41;;;;;;;11.20;2.72;;;6.80;99.90;;;;;;5071878;28;20214;-47
2023/01/31 11:52:26;;;;;;;9.88;3.22;;;6.80;99.90;;;;;;5071570;28;20177;-47
2023/01/31 11:54:59;;;;;;;8.48;2.88;;;6.80;99.90;;;;;;5064180;28;20186;-47
2023/01/31 11:57:55;;;;;;;6.53;3.00;;;6.90;99.90;;;;;;5051532;28;20174;-47
2023/01/31 12:00:27;;;;;;;4.28;2.75;;;6.80;99.90;;;;;;5050324;28;20240;-47
2023/01/31 12:03:05;;;;;;;5.18;2.45;;;6.60;99.90;;;;;;5055119;28;20216;-47
2023/01/31 12:05:43;;;;;;;6.43;2.42;;;6.70;99.90;;;;;;5071054;28;20259;-47
2023/01/31 12:08:29;;;;;;;11.75;3.88;;;6.70;99.90;;;;;;5069656;28;20556;-48
2023/01/31 12:10:55;;;;;;;4.38;3.00;;;6.70;99.90;;;;;;5071459;28;20188;-48
2023/01/31 12:13:22;;;;;;;11.48;5.68;;;6.70;99.90;;;;;;5071286;28;20170;-48
2023/01/31 12:16:03;;;;;;;15.90;6.47;;;8.60;99.90;;;;;;5071404;28;20170;-47
2023/01/31 12:18:57;;;;;;;8.40;4.18;;;6.80;99.90;;;;;;5070974;28;20170;-48
2023/01/31 12:21:57;;;;;;;15.13;5.03;;;6.80;99.90;;;;;;5071095;28;20174;-48
2023/01/31 12:24:33;;;;;;;9.15;3.72;;;6.90;99.90;;;;;;5061968;28;20265;-48
2023/01/31 12:27:26;;;;;;;7.15;3.33;;;6.80;99.90;;;;;;5069991;28;20245;-48
2023/01/31 12:30:02;;;;;;;6.65;3.08;;;6.80;99.90;;;;;;5070918;28;20554;-48
2023/01/31 12:32:30;;;;;;;8.73;3.30;;;6.80;99.90;;;;;;5070148;28;20642;-47
2023/01/31 12:35:11;;;;;;;10.70;4.13;;;6.80;99.90;;;;;;5054244;28;20174;-48
2023/01/31 12:37:45;;;;;;;6.82;3.15;;;6.90;99.90;;;;;;5050686;28;20170;-47
2023/01/31 12:40:28;;;;;;;7.68;4.05;;;6.90;99.90;;;;;;5050708;28;20256;-47
2023/01/31 12:43:00;;;;;;;8.82;3.88;;;6.90;99.90;;;;;;5051079;28;20182;-47
2023/01/31 12:45:47;;;;;;;8.32;3.92;;;6.90;99.90;;;;;;5050912;28;20189;-47
2023/01/31 12:48:40;;;;;;;11.13;3.60;;;6.90;99.90;;;;;;5050330;28;20194;-47
2023/01/31 12:51:21;;;;;;;8.82;4.07;;;6.90;99.90;;;;;;5050868;28;20163;-47
2023/01/31 12:54:13;;;;;;;11.95;4.20;;;6.90;99.90;;;;;;5050830;28;20170;-47
2023/01/31 12:56:45;;;;;;;8.13;3.60;;;6.90;99.90;;;;;;5050392;28;20198;-48
2023/01/31 12:59:31;;;;;;;17.58;7.82;;;6.90;99.90;;;;;;5050267;28;20166;-47
2023/01/31 13:02:10;;;;;;;8.75;4.53;;;6.80;99.90;;;;;;5050262;28;20170;-47
2023/01/31 13:04:45;;;;;;;8.05;3.92;;;6.90;99.90;;;;;;5067080;28;20209;-47
2023/01/31 13:07:19;;;;;;;10.40;4.28;;;6.80;99.90;;;;;;5070108;28;20252;-48
2023/01/31 13:09:47;;;;;;;9.68;4.38;;;6.90;99.90;;;;;;5070162;28;20684;-47
2023/01/31 13:12:18;;;;;;;5.97;3.67;;;6.90;99.90;;;;;;5070331;28;20174;-47
2023/01/31 13:14:49;;;;;;;12.25;4.35;;;6.80;99.90;;;;;;5070178;28;20174;-48
2023/01/31 13:17:20;;;;;;;9.18;4.10;;;6.90;99.90;;;;;;5070564;28;20169;-47
2023/01/31 13:19:54;;;;;;;9.35;4.30;;;6.80;99.90;;;;;;5071942;28;20201;-47